createdAt,value
2019-05-25T00:00:27.468Z,5.40
2019-05-25T00:02:58.084Z,3.60
2019-05-25T00:05:28.268Z,7.83
2019-05-25T00:07:58.423Z,8.93
2019-05-25T00:10:29.065Z,3.13
2019-05-25T00:12:59.707Z,5.23
2019-05-25T00:15:30.003Z,7.40
2019-05-25T00:18:00.660Z,6.97
2019-05-25T00:20:30.842Z,3.17
2019-05-25T00:23:05.206Z,5.03
2019-05-25T00:25:42.278Z,4.77
2019-05-25T00:28:13.612Z,5.17
2019-05-25T00:30:44.938Z,3.83
2019-05-25T00:33:20.123Z,5.33
2019-05-25T00:35:51.366Z,5.77
2019-05-25T00:38:21.595Z,6.23
2019-05-25T00:40:54.058Z,4.33
2019-05-25T00:43:24.680Z,4.23
2019-05-25T00:45:54.964Z,7.20
2019-05-25T00:48:25.147Z,5.00
2019-05-25T00:50:57.348Z,4.73
2019-05-25T00:53:27.884Z,6.87
2019-05-25T00:55:58.072Z,7.17
2019-05-25T00:58:28.337Z,6.37
2019-05-25T01:00:58.523Z,4.80
2019-05-25T01:03:29.083Z,4.30
2019-05-25T01:06:00.845Z,5.00
2019-05-25T01:08:32.138Z,3.43
2019-05-25T01:11:02.401Z,8.67
2019-05-25T01:13:33.995Z,5.17
2019-05-25T01:16:04.265Z,4.33
2019-05-25T01:18:34.736Z,7.07
2019-05-25T01:21:07.810Z,5.53
2019-05-25T01:23:39.271Z,4.60
2019-05-25T01:26:10.518Z,8.37
2019-05-25T01:28:42.775Z,4.63
2019-05-25T01:31:14.213Z,10.37
2019-05-25T01:33:47.188Z,5.23
2019-05-25T01:36:18.881Z,6.60
2019-05-25T01:38:50.526Z,5.97
2019-05-25T01:41:21.173Z,4.73
2019-05-25T01:43:52.903Z,10.30
2019-05-25T01:46:25.001Z,5.43
2019-05-25T01:48:55.177Z,3.83
2019-05-25T01:51:28.725Z,7.13
2019-05-25T01:53:59.451Z,7.13
2019-05-25T01:56:29.617Z,5.90
2019-05-25T01:59:00.084Z,5.10
2019-05-25T02:01:30.262Z,4.83
2019-05-25T02:04:00.440Z,4.50
2019-05-25T02:06:31.190Z,7.47
2019-05-25T02:09:01.913Z,4.80
2019-05-25T02:11:33.142Z,8.47
2019-05-25T02:14:03.351Z,5.67
2019-05-25T02:16:33.364Z,6.70
2019-05-25T02:19:05.452Z,5.47
2019-05-25T02:21:36.968Z,6.50
2019-05-25T02:24:09.296Z,7.10
2019-05-25T02:26:39.590Z,4.73
2019-05-25T02:29:13.354Z,8.13
2019-05-25T02:31:43.650Z,7.87
2019-05-25T02:34:14.555Z,4.17
2019-05-25T02:36:45.234Z,5.83
2019-05-25T02:39:15.403Z,6.30
2019-05-25T02:41:45.558Z,5.30
2019-05-25T02:44:15.741Z,7.53
2019-05-25T02:46:46.733Z,6.07
2019-05-25T02:49:16.902Z,5.37
2019-05-25T02:51:49.325Z,8.90
2019-05-25T02:54:20.927Z,5.47
2019-05-25T02:56:52.221Z,6.73
2019-05-25T02:59:22.412Z,5.77
2019-05-25T03:01:53.109Z,8.40
2019-05-25T03:04:23.317Z,6.57
2019-05-25T03:06:57.315Z,6.30
2019-05-25T03:09:30.446Z,6.70
2019-05-25T03:12:00.797Z,5.47
2019-05-25T03:14:31.487Z,8.20
2019-05-25T03:17:01.692Z,8.00
2019-05-25T03:19:33.064Z,4.90
2019-05-25T03:22:04.696Z,5.60
2019-05-25T03:24:35.933Z,10.60
2019-05-25T03:27:07.116Z,6.67
2019-05-25T03:29:37.972Z,6.73
2019-05-25T03:32:10.008Z,5.97
2019-05-25T03:34:40.183Z,6.80
2019-05-25T03:37:12.255Z,9.13
2019-05-25T03:39:42.433Z,9.70
2019-05-25T03:42:12.629Z,8.30
2019-05-25T03:44:43.703Z,7.07
2019-05-25T03:47:16.658Z,7.77
2019-05-25T03:49:46.849Z,7.77
2019-05-25T03:52:17.021Z,8.73
2019-05-25T03:54:47.194Z,6.43
2019-05-25T03:57:17.473Z,7.77
2019-05-25T03:59:49.736Z,8.00
2019-05-25T04:02:20.388Z,9.87
2019-05-25T04:04:52.323Z,8.20
2019-05-25T04:07:23.710Z,13.30
2019-05-25T04:09:56.274Z,8.13
2019-05-25T04:12:26.510Z,8.27
2019-05-25T04:14:58.913Z,8.07
2019-05-25T04:17:29.625Z,8.33
2019-05-25T04:20:02.668Z,11.27
2019-05-25T04:22:32.873Z,12.47
2019-05-25T04:25:03.927Z,9.33
2019-05-25T04:27:34.381Z,8.80
2019-05-25T04:30:07.299Z,11.17
2019-05-25T04:32:38.225Z,13.63
2019-05-25T04:35:09.176Z,9.30
2019-05-25T04:37:41.017Z,13.70
2019-05-25T04:40:12.229Z,8.57
2019-05-25T04:42:42.510Z,10.20
2019-05-25T04:45:13.264Z,9.53
2019-05-25T04:47:43.897Z,11.57
2019-05-25T04:50:15.916Z,12.90
2019-05-25T04:52:46.577Z,12.03
2019-05-25T04:55:16.727Z,12.20
2019-05-25T04:57:47.324Z,11.33
2019-05-25T05:00:17.619Z,14.33
2019-05-25T05:02:48.271Z,10.83
2019-05-25T05:05:19.514Z,12.40
2019-05-25T05:07:52.684Z,11.93
2019-05-25T05:10:22.853Z,10.77
2019-05-25T05:12:53.503Z,10.17
2019-05-25T05:15:23.688Z,10.87
2019-05-25T05:17:54.370Z,12.10
2019-05-25T05:20:24.527Z,13.13
2019-05-25T05:22:56.962Z,13.20
2019-05-25T05:25:30.057Z,16.93
2019-05-25T05:28:00.261Z,13.30
2019-05-25T05:30:34.890Z,19.07
2019-05-25T05:33:05.390Z,14.17
2019-05-25T05:35:38.916Z,11.70
2019-05-25T05:38:08.862Z,15.03
2019-05-25T05:40:39.465Z,14.50
2019-05-25T05:43:12.820Z,14.47
2019-05-25T05:45:44.707Z,15.83
2019-05-25T05:48:15.418Z,13.43
2019-05-25T05:50:46.980Z,17.13
2019-05-25T05:53:19.599Z,16.33
2019-05-25T05:55:49.794Z,13.80
2019-05-25T05:58:19.989Z,15.93
2019-05-25T06:00:50.190Z,13.60
2019-05-25T06:03:20.813Z,16.00
2019-05-25T06:05:50.977Z,15.90
2019-05-25T06:08:21.759Z,18.17
2019-05-25T06:10:51.937Z,15.40
2019-05-25T06:13:22.102Z,17.80
2019-05-25T06:15:55.759Z,17.63
2019-05-25T06:18:27.317Z,19.10
2019-05-25T06:20:57.508Z,20.53
2019-05-25T06:23:27.684Z,21.20
2019-05-25T06:26:00.246Z,22.83
2019-05-25T06:28:31.967Z,16.83
2019-05-25T06:31:09.668Z,18.93
2019-05-25T06:33:40.128Z,18.00
2019-05-25T06:36:10.334Z,15.17
2019-05-25T06:38:40.944Z,20.10
2019-05-25T06:41:12.165Z,18.63
2019-05-25T06:43:43.815Z,16.83
2019-05-25T06:46:14.348Z,15.70
2019-05-25T06:48:49.169Z,15.47
2019-05-25T06:51:19.929Z,13.93
2019-05-25T06:53:51.412Z,12.07
2019-05-25T06:56:23.270Z,12.40
2019-05-25T06:58:54.108Z,15.30
2019-05-25T07:01:24.422Z,17.00
2019-05-25T07:03:54.753Z,18.93
2019-05-25T07:06:25.086Z,14.77
2019-05-25T07:08:55.689Z,17.80
2019-05-25T07:11:26.942Z,13.53
2019-05-25T07:13:57.148Z,16.07
2019-05-25T07:16:29.402Z,15.60
2019-05-25T07:19:00.042Z,17.87
2019-05-25T07:21:31.185Z,16.70
2019-05-25T07:24:01.376Z,19.10
2019-05-25T07:26:33.680Z,18.90
2019-05-25T07:29:07.523Z,18.80
2019-05-25T07:31:43.353Z,16.70
2019-05-25T07:34:14.636Z,19.87
2019-05-25T07:36:44.834Z,23.13
2019-05-25T07:39:15.481Z,18.63
2019-05-25T07:41:46.766Z,19.53
2019-05-25T07:44:18.499Z,21.20
2019-05-25T07:46:51.041Z,22.00
2019-05-25T07:49:24.596Z,29.97
2019-05-25T07:51:56.760Z,27.87
2019-05-25T07:54:28.335Z,28.50
2019-05-25T07:57:00.134Z,32.60
2019-05-25T07:59:33.275Z,30.17
2019-05-25T08:02:06.121Z,34.23
2019-05-25T08:04:36.280Z,30.53
2019-05-25T08:07:06.489Z,32.77
2019-05-25T08:09:37.208Z,32.10
2019-05-25T08:12:07.426Z,29.47
2019-05-25T08:14:39.439Z,30.83
2019-05-25T08:17:10.585Z,31.53
2019-05-25T08:19:41.973Z,30.57
2019-05-25T08:22:12.469Z,29.97
2019-05-25T08:24:42.647Z,28.60
2019-05-25T08:27:14.084Z,25.07
2019-05-25T08:29:44.689Z,25.77
2019-05-25T08:32:17.714Z,24.53
2019-05-25T08:34:48.327Z,21.23
2019-05-25T08:37:18.653Z,21.53
2019-05-25T08:39:49.282Z,15.03
2019-05-25T08:42:21.145Z,18.97
2019-05-25T08:44:51.310Z,15.50
2019-05-25T08:47:21.496Z,14.33
2019-05-25T08:49:54.501Z,16.20
2019-05-25T08:52:26.020Z,13.13
2019-05-25T08:54:59.908Z,15.33
2019-05-25T08:57:30.318Z,19.23
2019-05-25T09:00:00.541Z,14.37
2019-05-25T09:02:31.232Z,14.63
2019-05-25T09:05:02.630Z,19.37
2019-05-25T09:07:33.872Z,13.63
2019-05-25T09:10:06.419Z,14.47
2019-05-25T09:12:37.049Z,12.93
2019-05-25T09:15:08.132Z,16.30
2019-05-25T09:17:38.751Z,17.77
2019-05-25T09:20:11.723Z,12.37
2019-05-25T09:22:43.477Z,12.63
2019-05-25T09:25:14.581Z,14.87
2019-05-25T09:27:46.421Z,12.17
2019-05-25T09:30:17.174Z,18.27
2019-05-25T09:32:48.253Z,13.80
2019-05-25T09:35:19.872Z,16.33
2019-05-25T09:37:50.964Z,13.57
2019-05-25T09:40:21.266Z,15.53
2019-05-25T09:42:51.996Z,14.53
2019-05-25T09:45:23.405Z,11.13
2019-05-25T09:47:53.574Z,12.60
2019-05-25T09:50:26.902Z,15.63
2019-05-25T09:52:57.515Z,16.57
2019-05-25T09:55:29.768Z,13.80
2019-05-25T09:58:00.033Z,14.10
2019-05-25T10:00:32.096Z,12.80
2019-05-25T10:03:02.919Z,13.90
2019-05-25T10:05:38.913Z,14.30
2019-05-25T10:08:10.063Z,14.07
2019-05-25T10:10:42.508Z,14.00
2019-05-25T10:13:13.799Z,14.13
2019-05-25T10:15:44.030Z,15.67
2019-05-25T10:18:15.331Z,18.73
2019-05-25T10:20:46.072Z,17.47
2019-05-25T10:23:17.202Z,16.50
2019-05-25T10:25:48.669Z,15.83
2019-05-25T10:28:22.354Z,17.43
2019-05-25T10:30:54.748Z,18.93
2019-05-25T10:33:27.765Z,18.67
2019-05-25T10:35:58.435Z,19.97
2019-05-25T10:38:28.628Z,21.83
2019-05-25T10:41:00.669Z,22.47
2019-05-25T10:43:31.947Z,21.27
2019-05-25T10:46:03.019Z,22.20
2019-05-25T10:48:34.075Z,24.27
2019-05-25T10:51:05.828Z,20.53
2019-05-25T10:53:40.632Z,21.60
2019-05-25T10:56:14.280Z,24.10
2019-05-25T10:58:44.888Z,24.02
2019-05-25T11:01:15.109Z,23.43
2019-05-25T11:03:47.297Z,24.87
2019-05-25T11:06:22.369Z,25.63
2019-05-25T11:08:52.560Z,26.30
2019-05-25T11:11:22.886Z,22.52
2019-05-25T11:13:53.533Z,25.10
2019-05-25T11:16:25.452Z,26.70
2019-05-25T11:18:58.878Z,26.00
2019-05-25T11:21:30.002Z,25.15
2019-05-25T11:24:02.156Z,26.97
2019-05-25T11:26:35.493Z,23.50
2019-05-25T11:29:09.384Z,25.90
2019-05-25T11:31:39.662Z,23.02
2019-05-25T11:34:10.671Z,25.77
2019-05-25T11:36:44.241Z,25.57
2019-05-25T11:39:14.430Z,21.50
2019-05-25T11:41:45.172Z,23.77
2019-05-25T11:44:18.723Z,25.02
2019-05-25T11:46:48.962Z,23.05
2019-05-25T11:49:22.792Z,15.95
2019-05-25T11:51:52.739Z,19.00
2019-05-25T11:54:23.407Z,19.73
2019-05-25T11:56:53.624Z,18.90
2019-05-25T11:59:24.520Z,20.17
2019-05-25T12:01:55.115Z,15.90
2019-05-25T12:04:25.308Z,17.25
2019-05-25T12:06:56.079Z,14.30
2019-05-25T12:09:27.229Z,13.68
2019-05-25T12:11:57.422Z,15.25
2019-05-25T12:14:27.591Z,14.63
2019-05-25T12:17:00.540Z,15.40
2019-05-25T12:19:31.076Z,15.35
2019-05-25T12:22:01.314Z,14.35
2019-05-25T12:24:32.085Z,14.40
2019-05-25T12:27:07.190Z,12.90
2019-05-25T12:29:38.615Z,11.78
2019-05-25T12:32:08.780Z,11.68
2019-05-25T12:34:40.367Z,11.83
2019-05-25T12:37:12.166Z,14.07
2019-05-25T12:39:42.781Z,10.35
2019-05-25T12:42:14.375Z,11.95
2019-05-25T12:44:46.029Z,13.45
2019-05-25T12:47:16.639Z,11.18
2019-05-25T12:49:50.914Z,10.20
2019-05-25T12:52:23.886Z,11.10
2019-05-25T12:54:55.323Z,10.95
2019-05-25T12:57:27.447Z,10.68
2019-05-25T13:00:14.121Z,9.78
2019-05-25T13:02:31.664Z,10.08
2019-05-25T13:05:01.977Z,13.53
2019-05-25T13:07:36.335Z,10.58
2019-05-25T13:10:08.190Z,11.65
2019-05-25T13:12:38.416Z,8.73
2019-05-25T13:15:10.192Z,8.73
2019-05-25T13:17:40.922Z,9.03
2019-05-25T13:20:11.525Z,9.38
2019-05-25T13:22:41.705Z,8.75
2019-05-25T13:25:13.144Z,6.83
2019-05-25T13:27:44.179Z,9.58
2019-05-25T13:30:17.193Z,9.23
2019-05-25T13:32:47.369Z,7.50
2019-05-25T13:35:17.658Z,8.43
2019-05-25T13:37:48.378Z,9.25
2019-05-25T13:40:22.761Z,9.53
2019-05-25T13:42:54.481Z,11.38
2019-05-25T13:45:32.758Z,7.83
2019-05-25T13:48:12.917Z,9.93
2019-05-25T13:50:45.298Z,11.40
2019-05-25T13:53:17.283Z,11.70
2019-05-25T13:55:47.462Z,9.58
2019-05-25T13:58:17.645Z,8.10
2019-05-25T14:00:48.467Z,8.98
2019-05-25T14:03:20.714Z,7.92
2019-05-25T14:05:50.933Z,7.53
2019-05-25T14:08:21.221Z,5.95
2019-05-25T14:10:53.964Z,6.20
2019-05-25T14:13:24.141Z,6.22
2019-05-25T14:16:06.665Z,5.90
2019-05-25T14:18:27.643Z,7.40
2019-05-25T14:20:59.245Z,5.42
2019-05-25T14:23:29.426Z,6.65
2019-05-25T14:25:59.585Z,8.13
2019-05-25T14:28:29.786Z,4.08
2019-05-25T14:31:01.386Z,5.53
2019-05-25T14:33:31.548Z,5.05
2019-05-25T14:36:02.339Z,6.05
2019-05-25T14:38:33.413Z,4.08
2019-05-25T14:41:05.222Z,4.72
2019-05-25T14:43:35.376Z,5.03
2019-05-25T14:46:06.581Z,5.55
2019-05-25T14:48:36.760Z,4.75
2019-05-25T14:51:08.580Z,5.15
2019-05-25T14:53:39.483Z,3.75
2019-05-25T14:56:13.351Z,4.62
2019-05-25T14:58:45.969Z,3.62
2019-05-25T15:01:17.458Z,5.37
2019-05-25T15:03:50.187Z,3.85
2019-05-25T15:06:24.625Z,5.47
2019-05-25T15:08:57.276Z,4.58
2019-05-25T15:11:28.346Z,4.75
2019-05-25T15:13:59.871Z,4.85
2019-05-25T15:16:33.787Z,4.97
2019-05-25T15:19:04.858Z,4.37
2019-05-25T15:21:36.589Z,5.00
2019-05-25T15:24:06.937Z,2.77
2019-05-25T15:26:39.016Z,5.15
2019-05-25T15:29:11.631Z,5.65
2019-05-25T15:31:43.985Z,4.70
2019-05-25T15:34:16.279Z,6.37
2019-05-25T15:36:50.213Z,7.28
2019-05-25T15:39:21.355Z,5.58
2019-05-25T15:41:52.026Z,5.65
2019-05-25T15:44:22.191Z,5.87
2019-05-25T15:46:53.548Z,5.05
2019-05-25T15:49:32.940Z,3.70
2019-05-25T15:51:57.327Z,5.47
2019-05-25T15:54:29.221Z,8.45
2019-05-25T15:57:00.708Z,4.75
2019-05-25T15:59:33.306Z,4.15
2019-05-25T16:02:05.589Z,5.17
2019-05-25T16:04:38.307Z,8.10
2019-05-25T16:07:08.492Z,4.55
2019-05-25T16:09:41.060Z,6.33
2019-05-25T16:12:11.671Z,6.00
2019-05-25T16:14:42.851Z,5.67
2019-05-25T16:17:13.214Z,6.62
2019-05-25T16:19:44.453Z,6.12
2019-05-25T16:22:15.109Z,6.65
2019-05-25T16:24:46.677Z,4.90
2019-05-25T16:27:17.270Z,6.22
2019-05-25T16:29:48.970Z,7.28
2019-05-25T16:32:23.648Z,10.00
2019-05-25T16:34:57.380Z,7.58
2019-05-25T16:37:29.417Z,10.80
2019-05-25T16:40:00.759Z,9.50
2019-05-25T16:42:34.240Z,5.80
2019-05-25T16:45:06.169Z,10.73
2019-05-25T16:47:37.478Z,6.80
2019-05-25T16:50:14.859Z,9.63
2019-05-25T16:52:51.069Z,7.07
2019-05-25T16:55:27.734Z,7.67
2019-05-25T16:58:00.211Z,8.40
2019-05-25T17:00:32.569Z,9.50
2019-05-25T17:03:06.039Z,8.33
2019-05-25T17:05:40.032Z,7.37
2019-05-25T17:08:12.377Z,6.62
2019-05-25T17:10:44.134Z,11.03
2019-05-25T17:13:14.755Z,6.83
2019-05-25T17:15:44.955Z,9.47
2019-05-25T17:18:16.775Z,8.03
2019-05-25T17:20:46.964Z,10.85
2019-05-25T17:23:18.589Z,9.50
2019-05-25T17:25:49.568Z,8.20
2019-05-25T17:28:19.801Z,9.23
2019-05-25T17:30:50.370Z,9.38
2019-05-25T17:33:21.679Z,7.90
2019-05-25T17:35:54.254Z,10.33
2019-05-25T17:38:24.449Z,8.05
2019-05-25T17:40:54.647Z,8.70
2019-05-25T17:43:25.555Z,10.37
2019-05-25T17:45:58.305Z,10.60
2019-05-25T17:48:29.996Z,7.40
2019-05-25T17:51:02.452Z,8.77
2019-05-25T17:53:34.221Z,12.50
2019-05-25T17:56:05.938Z,8.83
2019-05-25T17:58:37.573Z,5.07
2019-05-25T18:01:07.745Z,11.20
2019-05-25T18:03:40.875Z,7.40
2019-05-25T18:06:12.696Z,8.07
2019-05-25T18:08:42.918Z,11.77
2019-05-25T18:11:13.057Z,9.30
2019-05-25T18:13:46.121Z,10.50
2019-05-25T18:16:18.070Z,10.77
2019-05-25T18:18:51.401Z,9.00
2019-05-25T18:21:24.804Z,8.90
2019-05-25T18:23:58.219Z,8.73
2019-05-25T18:26:30.857Z,7.93
2019-05-25T18:29:02.357Z,9.30
2019-05-25T18:31:32.473Z,9.60
2019-05-25T18:34:21.197Z,8.30
2019-05-25T18:36:38.644Z,9.17
2019-05-25T18:39:08.879Z,9.23
2019-05-25T18:41:39.042Z,8.50
2019-05-25T18:44:09.689Z,7.50
2019-05-25T18:46:41.030Z,10.23
2019-05-25T18:49:11.220Z,9.50
2019-05-25T18:51:42.464Z,7.27
2019-05-25T18:54:13.170Z,9.70
2019-05-25T18:56:43.459Z,6.60
2019-05-25T18:59:13.659Z,8.57
2019-05-25T19:01:45.188Z,6.67
2019-05-25T19:04:15.885Z,10.83
2019-05-25T19:06:46.054Z,6.27
2019-05-25T19:09:16.350Z,10.33
2019-05-25T19:11:46.534Z,7.50
2019-05-25T19:14:20.580Z,8.70
2019-05-25T19:16:51.197Z,8.00
2019-05-25T19:19:21.393Z,8.33
2019-05-25T19:21:52.008Z,5.27
2019-05-25T19:24:22.400Z,6.57
2019-05-25T19:26:53.424Z,6.90
2019-05-25T19:29:23.701Z,5.47
2019-05-25T19:31:54.406Z,5.70
2019-05-25T19:34:27.682Z,6.83
2019-05-25T19:37:03.429Z,6.20
2019-05-25T19:39:30.324Z,4.80
2019-05-25T19:42:00.585Z,6.20
2019-05-25T19:44:30.874Z,6.43
2019-05-25T19:47:01.564Z,7.20
2019-05-25T19:49:33.560Z,6.57
2019-05-25T19:52:06.174Z,5.27
2019-05-25T19:54:36.409Z,6.97
2019-05-25T19:57:07.215Z,5.53
2019-05-25T19:59:37.992Z,6.43
2019-05-25T20:02:08.631Z,10.57
2019-05-25T20:04:39.396Z,5.63
2019-05-25T20:07:10.107Z,10.23
2019-05-25T20:09:40.333Z,6.73
2019-05-25T20:12:12.315Z,8.40
2019-05-25T20:14:44.183Z,6.57
2019-05-25T20:17:16.414Z,5.40
2019-05-25T20:19:47.605Z,5.03
2019-05-25T20:22:20.263Z,5.27
2019-05-25T20:24:50.578Z,7.03
2019-05-25T20:27:21.335Z,7.43
2019-05-25T20:29:53.539Z,7.43
2019-05-25T20:32:23.550Z,7.83
2019-05-25T20:34:55.402Z,5.30
2019-05-25T20:37:26.403Z,5.87
2019-05-25T20:39:56.586Z,8.33
2019-05-25T20:42:26.759Z,6.20
2019-05-25T20:44:57.010Z,9.23
2019-05-25T20:47:27.713Z,4.60
2019-05-25T20:49:59.135Z,5.43
2019-05-25T20:52:29.314Z,7.00
2019-05-25T20:54:59.606Z,6.17
2019-05-25T20:57:29.863Z,6.13
2019-05-25T21:00:02.844Z,4.93
2019-05-25T21:02:33.788Z,6.40
2019-05-25T21:05:04.074Z,5.27
2019-05-25T21:07:35.529Z,7.03
2019-05-25T21:10:07.803Z,6.20
2019-05-25T21:12:38.009Z,7.07
2019-05-25T21:15:08.257Z,5.57
2019-05-25T21:17:41.054Z,6.80
2019-05-25T21:20:12.297Z,7.97
2019-05-25T21:22:45.658Z,8.77
2019-05-25T21:25:18.083Z,8.07
2019-05-25T21:27:48.375Z,7.50
2019-05-25T21:30:19.112Z,11.43
2019-05-25T21:32:51.124Z,6.30
2019-05-25T21:35:22.531Z,8.57
2019-05-25T21:37:52.682Z,9.40
2019-05-25T21:40:24.760Z,10.93
2019-05-25T21:42:55.478Z,6.60
2019-05-25T21:45:25.782Z,8.10
2019-05-25T21:47:56.574Z,8.23
2019-05-25T21:50:26.944Z,6.30
2019-05-25T21:52:57.574Z,7.47
2019-05-25T21:55:29.540Z,7.17
2019-05-25T21:57:59.802Z,9.87
2019-05-25T22:00:31.183Z,7.47
2019-05-25T22:03:03.520Z,10.20
2019-05-25T22:05:33.719Z,9.43
2019-05-25T22:08:03.930Z,8.73
2019-05-25T22:10:34.114Z,7.63
2019-05-25T22:13:05.993Z,7.33
2019-05-25T22:15:36.418Z,11.90
2019-05-25T22:18:06.929Z,11.20
2019-05-25T22:20:37.169Z,7.40
2019-05-25T22:23:07.855Z,11.10
2019-05-25T22:25:38.031Z,9.10
2019-05-25T22:28:08.189Z,7.23
2019-05-25T22:30:39.265Z,9.47
2019-05-25T22:33:09.881Z,9.27
2019-05-25T22:35:41.202Z,8.43
2019-05-25T22:38:11.363Z,7.77
2019-05-25T22:40:41.556Z,7.47
2019-05-25T22:43:12.327Z,8.57
2019-05-25T22:45:45.200Z,10.83
2019-05-25T22:48:16.964Z,9.90
2019-05-25T22:50:48.648Z,9.87
2019-05-25T22:53:19.439Z,9.90
2019-05-25T22:55:51.717Z,9.97
2019-05-25T22:58:21.994Z,8.33
2019-05-25T23:00:52.216Z,9.13
2019-05-25T23:03:23.838Z,12.87
2019-05-25T23:05:54.000Z,11.80
2019-05-25T23:08:24.201Z,9.77
2019-05-25T23:10:54.449Z,14.17
2019-05-25T23:13:24.701Z,10.50
2019-05-25T23:15:55.475Z,12.77
2019-05-25T23:18:25.682Z,14.83
2019-05-25T23:20:55.883Z,17.10
2019-05-25T23:23:26.081Z,13.87
2019-05-25T23:25:56.771Z,14.00
2019-05-25T23:28:27.307Z,10.63
2019-05-25T23:30:57.513Z,11.33
2019-05-25T23:33:27.756Z,13.27
2019-05-25T23:35:58.901Z,13.33
2019-05-25T23:38:29.090Z,12.90
2019-05-25T23:41:00.661Z,10.83
2019-05-25T23:43:31.649Z,11.47
2019-05-25T23:46:02.258Z,14.07
2019-05-25T23:48:33.261Z,14.27
2019-05-25T23:51:03.514Z,12.53
2019-05-25T23:53:34.112Z,19.37
2019-05-25T23:56:06.867Z,22.73
2019-05-25T23:58:39.869Z,16.87
